Latest Weather Observations for Westmere

IDV60801

Issued at 6:02 pm EDT Friday 6 March 2015 (issued every 30 minutes, with the page automatically refreshed every 10 minutes)

About weather observations | Map of weather stations | Latest weather observations for VIC | Other Formats
Station Details ID: 089112 Name: WESTMERE Lat: -37.71 Lon: 142.94 Height: 226.0 m
Data from the previous 72 hours. | See also: Recent months at Westmere
Date/Time
EDT
Temp
°C
App
Temp
°C
Dew
Point
Rel
Hum
%
Delta-T
°C
Wind Press
QNH
hPa
Press
MSL
hPa
Rain
since 9 am
mm
Dir
 
Spd
km/h
Gust
km/h
Spd
kts
Gust
kts
06/06:00pm 16.2 14.0 14.9 92 0.8 SW 20 33 11 18 1012.8 1012.2 0.0
06/05:30pm 17.4 13.8 14.1 81 1.9 SW 26 35 14 19 1012.7 1012.1 0.0
06/05:00pm 17.9 14.3 14.2 79 2.1 SW 26 41 14 22 1012.6 1012.0 0.0
06/04:30pm 18.9 14.7 13.5 71 3.1 SW 28 43 15 23 1012.5 1011.9 0.0
06/04:00pm 18.1 14.1 14.0 77 2.4 SW 28 39 15 21 1012.6 1012.0 0.0
06/03:30pm 16.8 14.4 15.3 91 0.9 SW 22 33 12 18 1012.8 1012.2 0.0
06/03:00pm 17.6 14.0 14.3 81 1.9 WSW 26 37 14 20 1013.0 1012.4 0.0
06/02:48pm 18.9 13.9 13.3 70 3.2 SW 32 52 17 28 1013.0 1012.4 0.0
06/02:30pm 18.7 14.5 13.6 72 2.9 SW 28 41 15 22 1013.2 1012.6 0.0
06/02:00pm 16.9 11.9 13.4 80 2.0 SW 32 44 17 24 1013.3 1012.7 0.0
06/01:30pm 17.1 13.6 14.4 84 1.6 WSW 26 35 14 19 1013.3 1012.7 0.0
06/01:09pm 16.3 12.3 14.1 87 1.3 SW 28 46 15 25 1013.5 1012.9 0.0
06/01:00pm 16.9 13.6 14.9 88 1.2 WSW 26 35 14 19 1013.3 1012.7 0.0
06/12:30pm 15.5 12.4 14.5 94 0.6 WSW 24 35 13 19 1013.6 1013.0 0.0
06/12:00pm 16.0 11.8 13.5 85 1.4 WSW 28 37 15 20 1013.8 1013.2 0.0
06/11:30am 15.6 11.2 12.9 84 1.5 WSW 28 39 15 21 1013.8 1013.2 0.0
06/11:00am 15.6 10.7 12.4 81 1.8 WSW 30 41 16 22 1013.7 1013.1 0.0
06/10:30am 15.1 10.8 12.1 82 1.6 WSW 26 37 14 20 1013.6 1013.0 0.0
06/10:00am 14.7 9.9 11.8 83 1.6 WSW 28 39 15 21 1013.3 1012.7 0.0
06/09:30am 14.4 9.2 11.7 84 1.5 WSW 30 44 16 24 1013.2 1012.6 0.0
06/09:00am 13.9 9.1 11.6 86 1.2 WSW 28 41 15 22 1013.1 1012.5 0.0
06/08:30am 13.7 9.3 11.6 87 1.1 WSW 26 37 14 20 1012.9 1012.3 0.0
06/08:00am 13.1 9.3 11.3 89 1.0 W 22 32 12 17 1012.8 1012.2 0.0
06/07:30am 12.7 8.7 10.6 87 1.1 W 22 35 12 19 1012.6 1012.0 0.0
06/07:00am 12.6 8.4 9.8 83 1.4 W 22 35 12 19 1012.7 1012.1 0.0
06/06:30am 12.8 8.2 9.6 81 1.6 W 24 39 13 21 1012.3 1011.8 0.0
06/06:00am 12.7 8.8 9.3 80 1.7 W 20 30 11 16 1012.5 1011.9 0.0
06/05:30am 12.4 8.4 9.1 80 1.7 W 20 32 11 17 1012.7 1012.1 0.0
06/05:00am 12.1 8.0 8.8 80 1.7 WNW 20 28 11 15 1012.9 1012.3 0.0
06/04:30am 12.0 7.9 8.7 80 1.7 W 20 32 11 17 1013.3 1012.7 0.0
06/04:00am 12.4 7.6 8.7 78 1.9 W 24 35 13 19 1013.7 1013.1 0.0
06/03:30am 12.4 7.5 8.5 77 2.0 W 24 35 13 19 1013.9 1013.4 0.0
06/03:00am 12.3 7.4 8.4 77 2.0 W 24 35 13 19 1014.3 1013.8 0.0
06/02:30am 12.0 7.7 7.9 76 2.0 W 20 33 11 18 1014.7 1014.2 0.0
06/02:00am 11.7 7.5 7.4 75 2.1 W 19 30 10 16 1015.2 1014.7 0.0
06/01:30am 11.8 7.4 7.3 74 2.2 WNW 20 30 11 16 1015.3 1014.8 0.0
06/01:00am 11.8 7.4 7.3 74 2.2 WNW 20 33 11 18 1015.2 1014.7 0.0
06/12:30am 12.0 8.1 7.1 72 2.4 WNW 17 24 9 13 1015.7 1015.2 0.0
06/12:00am 12.0 8.1 6.9 71 2.5 W 17 28 9 15 1016.0 1015.5 0.0
 
Date/Time
EDT
Temp
°C
App
Temp
°C
Dew
Point
Rel
Hum
%
Delta-T
°C
Wind Press
QNH
hPa
Press
MSL
hPa
Rain
since 9 am
mm
Dir
 
Spd
km/h
Gust
km/h
Spd
kts
Gust
kts
05/11:30pm 11.8 7.7 6.1 68 2.7 W 17 24 9 13 1016.2 1015.7 0.0
05/11:00pm 12.4 8.6 6.0 65 3.0 W 15 26 8 14 1016.4 1015.9 0.0
05/10:30pm 12.3 8.1 5.9 65 3.0 W 17 22 9 12 1016.8 1016.3 0.0
05/10:00pm 12.5 8.3 5.9 64 3.1 W 17 28 9 15 1017.0 1016.5 0.0
05/09:30pm 13.2 8.2 6.3 63 3.3 WSW 22 32 12 17 1017.3 1016.7 0.0
05/09:00pm 13.4 8.8 5.8 60 3.6 W 19 28 10 15 1017.0 1016.5 0.0
05/08:30pm 13.6 8.4 5.5 58 3.9 WSW 22 33 12 18 1016.8 1016.3 0.0
05/08:00pm 13.7 9.3 6.6 62 3.5 SW 19 30 10 16 1016.9 1016.4 0.0
05/07:30pm 14.7 9.0 5.0 52 4.6 WSW 24 35 13 19 1017.0 1016.5 0.0
05/07:00pm 15.3 9.2 4.7 49 5.0 SW 26 37 14 20 1017.0 1016.5 0.0
05/06:30pm 15.4 9.4 5.3 51 4.8 SW 26 37 14 20 1017.2 1016.6 0.0
05/06:00pm 16.7 10.4 5.6 48 5.4 SW 28 39 15 21 1017.2 1016.6 0.0
05/05:30pm 17.2 10.5 5.5 46 5.7 SW 30 43 16 23 1017.0 1016.5 0.0
05/05:00pm 17.9 12.5 4.5 41 6.4 SW 22 37 12 20 1016.9 1016.4 0.0
05/04:30pm 18.2 12.6 3.7 38 6.9 SW 22 33 12 18 1017.2 1016.6 0.0
05/04:00pm 18.1 12.6 3.9 39 6.7 SW 22 33 12 18 1017.5 1016.9 0.0
05/03:30pm 18.3 11.6 3.8 38 6.9 SW 28 41 15 22 1017.9 1017.4 0.0
05/03:00pm 17.9 11.8 4.8 42 6.3 SW 26 39 14 21 1018.0 1017.5 0.0
05/02:30pm 18.0 11.9 4.6 41 6.5 SW 26 43 14 23 1018.5 1018.0 0.0
05/02:00pm 17.7 12.3 4.6 42 6.3 SW 22 35 12 19 1018.5 1018.0 0.0
05/01:30pm 17.0 11.7 5.0 45 5.8 SW 22 44 12 24 1018.7 1018.2 0.0
05/01:00pm 17.3 11.7 5.3 45 5.8 SSW 24 39 13 21 1019.0 1018.5 0.0
05/12:30pm 16.0 10.3 4.7 47 5.4 SW 24 37 13 20 1019.5 1019.0 0.0
05/12:00pm 14.7 8.0 5.8 55 4.3 SSW 30 46 16 25 1019.7 1019.2 0.0
05/11:30am 16.0 9.3 3.8 44 5.7 SW 28 41 15 22 1019.6 1019.1 0.0
05/11:00am 14.9 8.4 4.9 51 4.7 SSW 28 43 15 23 1019.3 1018.8 0.0
05/10:30am 13.4 6.8 6.0 61 3.6 SSW 30 44 16 24 1019.3 1018.8 0.0
05/10:00am 13.4 5.9 6.3 62 3.4 SSW 35 48 19 26 1018.8 1018.3 0.0
05/09:30am 12.7 6.4 7.4 70 2.6 SSW 30 43 16 23 1018.5 1018.0 0.0
05/09:00am 11.9 6.2 6.6 70 2.5 SSW 26 35 14 19 1018.0 1017.5 1.4
05/08:30am 10.6 6.1 6.0 73 2.2 SSW 19 28 10 15 1017.4 1016.8 1.4
05/08:00am 9.3 5.0 5.3 76 1.8 SW 17 22 9 12 1017.2 1016.6 1.4
05/07:30am 8.3 4.8 5.4 82 1.3 SW 13 15 7 8 1016.9 1016.4 1.4
05/07:00am 8.4 5.2 5.3 81 1.4 SW 11 13 6 7 1016.4 1015.9 1.4
05/06:30am 9.0 5.2 5.7 80 1.5 SW 15 22 8 12 1015.9 1015.4 1.4
05/06:00am 9.3 4.6 5.9 79 1.6 SW 20 28 11 15 1015.6 1015.1 1.4
05/05:30am 9.9 5.2 5.9 76 1.9 WSW 20 30 11 16 1015.7 1015.2 1.4
05/05:00am 9.3 3.3 5.5 77 1.7 SW 26 43 14 23 1015.3 1014.8 1.4
05/04:30am 10.0 4.9 6.2 77 1.8 SW 22 30 12 16 1015.2 1014.7 1.4
05/04:00am 10.3 4.6 6.8 79 1.7 SW 26 35 14 19 1014.6 1014.1 1.4
05/03:30am 10.7 3.9 7.9 83 1.4 SW 33 48 18 26 1014.4 1013.9 1.4
05/03:09am 11.4 4.9 9.0 85 1.2 SW 33 63 18 34 1014.1 1013.6 1.4
05/03:00am 11.4 5.0 9.3 87 1.1 SW 33 43 18 23 1013.8 1013.2 1.4
05/02:32am 12.0 5.5 10.4 90 0.8 SW 35 56 19 30 1013.7 1013.1 1.4
05/02:30am 12.4 6.4 10.8 90 0.8 SW 33 50 18 27 1013.6 1013.0 1.2
05/02:00am 13.3 8.5 11.7 90 0.9 WSW 28 48 15 26 1013.0 1012.4 1.2
05/01:30am 13.5 7.0 11.7 89 1.0 WSW 37 59 20 32 1012.6 1012.0 1.2
05/01:15am 14.0 9.0 12.2 89 1.0 WSW 30 50 16 27 1012.3 1011.8 1.2
05/01:00am 14.0 9.4 12.4 90 0.9 W 28 41 15 22 1012.1 1011.6 1.2
05/12:38am 13.9 9.7 13.4 97 0.3 WSW 28 48 15 26 1011.8 1011.3 1.2
05/12:30am 14.6 11.4 13.0 90 0.9 W 22 35 12 19 1011.9 1011.4 0.0
05/12:00am 15.3 11.0 11.9 80 1.9 WNW 26 37 14 20 1011.5 1011.0 0.0
 
Date/Time
EDT
Temp
°C
App
Temp
°C
Dew
Point
Rel
Hum
%
Delta-T
°C
Wind Press
QNH
hPa
Press
MSL
hPa
Rain
since 9 am
mm
Dir
 
Spd
km/h
Gust
km/h
Spd
kts
Gust
kts
04/11:30pm 15.8 12.1 11.6 76 2.3 WNW 22 32 12 17 1011.8 1011.3 0.0
04/11:00pm 15.5 12.1 11.3 76 2.3 WNW 20 30 11 16 1011.8 1011.3 0.0
04/10:30pm 15.4 11.6 11.0 75 2.4 WNW 22 33 12 18 1012.1 1011.6 0.0
04/10:00pm 15.9 11.3 10.9 72 2.7 WNW 26 43 14 23 1012.2 1011.7 0.0
04/09:40pm 17.1 12.1 10.9 67 3.4 W 28 56 15 30 1012.3 1011.8 0.0
04/09:30pm 17.4 12.7 10.5 64 3.7 W 26 39 14 21 1012.0 1011.5 0.0
04/09:00pm 17.7 13.5 9.6 59 4.3 WNW 22 33 12 18 1011.6 1011.1 0.0
04/08:30pm 18.1 13.8 9.5 57 4.6 WNW 22 32 12 17 1011.6 1011.1 0.0
04/08:00pm 18.8 14.6 9.8 56 4.8 W 22 33 12 18 1011.4 1010.9 0.0
04/07:30pm 19.3 14.8 10.0 55 5.0 WNW 24 35 13 19 1011.4 1010.9 0.0
04/07:00pm 20.3 15.5 10.4 53 5.4 W 26 43 14 23 1011.5 1011.0 0.0
04/06:30pm 20.6 15.0 10.1 51 5.7 W 30 43 16 23 1011.5 1011.0 0.0
04/06:00pm 21.3 16.5 10.2 49 6.1 WNW 26 39 14 21 1011.5 1011.0 0.0
04/05:30pm 21.9 16.6 9.8 46 6.6 W 28 39 15 21 1011.6 1011.1 0.0
04/05:00pm 20.7 16.0 9.3 48 6.1 W 24 39 13 21 1011.9 1011.4 0.0
04/04:30pm 21.2 16.6 9.8 48 6.2 W 24 43 13 23 1012.2 1011.7 0.0
04/04:00pm 20.4 15.4 9.6 50 5.8 W 26 39 14 21 1012.7 1012.1 0.0
04/03:30pm 21.7 17.1 9.6 46 6.6 WNW 24 43 13 23 1013.0 1012.4 0.0
04/03:00pm 20.7 16.1 9.6 49 6.0 W 24 35 13 19 1013.3 1012.7 0.0
04/02:30pm 20.6 15.7 9.8 50 5.9 WNW 26 43 14 23 1013.7 1013.1 0.0
04/02:00pm 20.6 16.9 10.1 51 5.7 WNW 20 33 11 18 1013.9 1013.4 0.0
04/01:30pm 18.9 15.3 9.7 55 4.9 WNW 19 32 10 17 1014.5 1014.0 0.0
04/01:00pm 18.0 14.2 9.9 59 4.3 W 20 32 11 17 1014.9 1014.4 0.0
04/12:30pm 17.9 13.7 9.8 59 4.3 W 22 32 12 17 1015.2 1014.7 0.0
04/12:00pm 17.2 13.3 9.6 61 4.0 WNW 20 32 11 17 1015.6 1015.1 0.0
04/11:30am 16.6 12.9 9.5 63 3.7 W 19 26 10 14 1016.1 1015.6 0.0
04/11:00am 15.7 12.0 9.4 66 3.3 W 19 30 10 16 1016.4 1015.9 0.0
04/10:30am 15.3 11.0 9.4 68 3.1 W 22 32 12 17 1016.3 1015.8 0.0
04/10:00am 15.4 11.7 9.3 67 3.2 W 19 28 10 15 1016.1 1015.6 0.0
04/09:30am 14.9 12.1 9.9 72 2.6 WNW 15 19 8 10 1016.1 1015.6 0.0
04/09:00am 14.1 12.0 9.9 76 2.2 WNW 11 17 6 9 1015.9 1015.4 0.0
04/08:30am 12.2 10.5 9.9 86 1.2 WNW 9 15 5 8 1016.0 1015.5 0.0
04/08:00am 10.9 9.2 9.7 92 0.6 WNW 9 11 5 6 1015.8 1015.3 0.0
04/07:30am 9.5 7.5 8.7 95 0.4 WNW 9 13 5 7 1015.5 1015.0 0.0
04/07:00am 9.0 7.4 8.9 99 0.0 WNW 7 9 4 5 1015.4 1014.9 0.0
04/06:30am 8.4 6.7 8.3 99 0.0 NW 7 9 4 5 1015.3 1014.8 0.0
04/06:00am 6.8 5.3 6.7 99 0.0 NNW 4 6 2 3 1015.4 1014.9 0.0
04/05:30am 7.3 5.5 7.2 99 0.0 W 6 7 3 4 1015.4 1014.9 0.0
04/05:00am 6.7 5.1 6.4 98 0.1 S 4 6 2 3 1015.6 1015.1 0.0
04/04:30am 7.0 5.4 6.4 96 0.3 S 4 6 2 3 1015.7 1015.2 0.0
04/04:00am 8.2 6.6 8.1 99 0.0 S 6 6 3 3 1015.9 1015.4 0.0
04/03:30am 7.6 5.8 7.3 98 0.1 S 6 7 3 4 1016.0 1015.5 0.0
04/03:00am 7.9 6.0 7.6 98 0.1 S 7 7 4 4 1016.2 1015.7 0.0
04/02:30am 6.8 5.5 6.1 95 0.3 S 2 4 1 2 1016.5 1016.0 0.0
04/02:00am 8.3 6.4 7.4 94 0.4 S 7 7 4 4 1016.9 1016.4 0.0
04/01:30am 9.2 7.7 8.3 94 0.4 S 6 6 3 3 1017.2 1016.6 0.0
04/01:00am 8.8 7.1 7.7 93 0.5 S 6 6 3 3 1017.3 1016.7 0.0
04/12:30am 9.8 9.1 8.4 91 0.7 S 2 6 1 3 1017.4 1016.8 0.0
04/12:00am 11.4 10.1 9.3 87 1.1 S 6 7 3 4 1017.6 1017.0 0.0
 
Date/Time
EDT
Temp
°C
App
Temp
°C
Dew
Point
Rel
Hum
%
Delta-T
°C
Wind Press
QNH
hPa
Press
MSL
hPa
Rain
since 9 am
mm
Dir
 
Spd
km/h
Gust
km/h
Spd
kts
Gust
kts
03/11:30pm 11.8 11.3 9.2 84 1.3 S 2 4 1 2 1017.9 1017.4 0.0
03/11:00pm 12.4 11.5 9.4 82 1.5 S 4 7 2 4 1018.0 1017.5 0.0
03/10:30pm 13.4 11.4 10.0 80 1.8 SSW 11 15 6 8 1018.0 1017.5 0.0
03/10:00pm 14.0 11.6 10.2 78 2.0 SSW 13 17 7 9 1017.9 1017.4 0.0
03/09:30pm 14.4 12.0 10.0 75 2.3 S 13 19 7 10 1017.5 1016.9 0.0
03/09:00pm 15.5 12.0 10.1 70 2.9 SSW 19 24 10 13 1017.0 1016.5 0.0
03/08:30pm 16.5 13.0 10.1 66 3.4 SSW 19 28 10 15 1016.5 1016.0 0.0
03/08:00pm 17.9 14.3 9.8 59 4.3 SSW 19 24 10 13 1016.2 1015.7 0.0
03/07:30pm 19.6 15.3 9.2 51 5.5 SSW 22 32 12 17 1015.7 1015.2 0.0
03/07:00pm 21.1 17.2 8.7 45 6.6 S 19 24 10 13 1015.5 1015.0 0.0
03/06:30pm 22.1 18.6 8.9 43 7.1 S 17 26 9 14 1015.5 1015.0 0.0

Other Formats:

Comma delimited format used in spreadsheet applications
http://www.bom.gov.au/fwo/IDV60801/IDV60801.95840.axf

JavaScript Object Notation format (JSON) in row-major order
http://www.bom.gov.au/fwo/IDV60801/IDV60801.95840.json